sensor_id;sensor_type;location;lat;lon;timestamp;P1;durP1;ratioP1;P2;durP2;ratioP2
11191;SDS011;5652;48.406;10.820;2024-03-06T00:00:59;32.63;;;25.58;;
11191;SDS011;5652;48.406;10.820;2024-03-06T00:03:26;33.50;;;25.52;;
11191;SDS011;5652;48.406;10.820;2024-03-06T00:05:53;32.70;;;26.23;;
11191;SDS011;5652;48.406;10.820;2024-03-06T00:08:22;34.63;;;27.23;;
11191;SDS011;5652;48.406;10.820;2024-03-06T00:10:49;34.40;;;27.58;;
11191;SDS011;5652;48.406;10.820;2024-03-06T00:13:16;34.90;;;28.13;;
11191;SDS011;5652;48.406;10.820;2024-03-06T00:15:43;34.40;;;27.23;;
11191;SDS011;5652;48.406;10.820;2024-03-06T00:18:10;34.08;;;27.30;;
11191;SDS011;5652;48.406;10.820;2024-03-06T00:20:37;34.83;;;27.40;;
11191;SDS011;5652;48.406;10.820;2024-03-06T00:23:05;32.15;;;25.90;;
11191;SDS011;5652;48.406;10.820;2024-03-06T00:25:34;33.17;;;27.20;;
11191;SDS011;5652;48.406;10.820;2024-03-06T00:28:01;32.45;;;26.23;;
11191;SDS011;5652;48.406;10.820;2024-03-06T00:30:28;31.40;;;26.08;;
11191;SDS011;5652;48.406;10.820;2024-03-06T00:32:56;32.67;;;26.10;;
11191;SDS011;5652;48.406;10.820;2024-03-06T00:35:23;31.67;;;25.35;;
11191;SDS011;5652;48.406;10.820;2024-03-06T00:37:51;30.07;;;25.30;;
11191;SDS011;5652;48.406;10.820;2024-03-06T00:40:19;31.52;;;26.80;;
11191;SDS011;5652;48.406;10.820;2024-03-06T00:42:47;34.53;;;26.83;;
11191;SDS011;5652;48.406;10.820;2024-03-06T00:45:14;31.27;;;25.70;;
11191;SDS011;5652;48.406;10.820;2024-03-06T00:47:41;34.70;;;26.63;;
11191;SDS011;5652;48.406;10.820;2024-03-06T00:50:09;32.97;;;26.92;;
11191;SDS011;5652;48.406;10.820;2024-03-06T00:52:36;33.80;;;27.20;;
11191;SDS011;5652;48.406;10.820;2024-03-06T00:55:03;34.25;;;27.25;;
11191;SDS011;5652;48.406;10.820;2024-03-06T00:57:31;33.33;;;26.63;;
11191;SDS011;5652;48.406;10.820;2024-03-06T00:59:59;33.28;;;26.85;;
11191;SDS011;5652;48.406;10.820;2024-03-06T01:02:31;32.42;;;26.52;;
11191;SDS011;5652;48.406;10.820;2024-03-06T01:04:58;36.90;;;27.35;;
11191;SDS011;5652;48.406;10.820;2024-03-06T01:07:25;35.00;;;27.67;;
11191;SDS011;5652;48.406;10.820;2024-03-06T01:09:52;33.13;;;26.88;;
11191;SDS011;5652;48.406;10.820;2024-03-06T01:12:19;34.30;;;27.90;;
11191;SDS011;5652;48.406;10.820;2024-03-06T01:14:46;35.78;;;28.48;;
11191;SDS011;5652;48.406;10.820;2024-03-06T01:17:15;33.33;;;27.70;;
11191;SDS011;5652;48.406;10.820;2024-03-06T01:19:42;34.80;;;28.17;;
11191;SDS011;5652;48.406;10.820;2024-03-06T01:22:09;35.40;;;28.30;;
11191;SDS011;5652;48.406;10.820;2024-03-06T01:24:38;35.65;;;28.33;;
11191;SDS011;5652;48.406;10.820;2024-03-06T01:27:05;34.63;;;29.05;;
11191;SDS011;5652;48.406;10.820;2024-03-06T01:29:32;36.03;;;28.48;;
11191;SDS011;5652;48.406;10.820;2024-03-06T01:31:59;36.40;;;28.83;;
11191;SDS011;5652;48.406;10.820;2024-03-06T01:34:28;37.73;;;29.70;;
11191;SDS011;5652;48.406;10.820;2024-03-06T01:36:55;36.30;;;28.65;;
11191;SDS011;5652;48.406;10.820;2024-03-06T01:39:22;37.25;;;29.70;;
11191;SDS011;5652;48.406;10.820;2024-03-06T01:41:50;35.58;;;28.00;;
11191;SDS011;5652;48.406;10.820;2024-03-06T01:44:18;36.30;;;27.67;;
11191;SDS011;5652;48.406;10.820;2024-03-06T01:46:46;35.72;;;26.83;;
11191;SDS011;5652;48.406;10.820;2024-03-06T01:49:13;35.17;;;26.93;;
11191;SDS011;5652;48.406;10.820;2024-03-06T01:51:45;37.17;;;26.98;;
11191;SDS011;5652;48.406;10.820;2024-03-06T01:54:15;36.15;;;27.92;;
11191;SDS011;5652;48.406;10.820;2024-03-06T01:56:44;37.65;;;28.23;;
11191;SDS011;5652;48.406;10.820;2024-03-06T01:59:11;34.58;;;27.45;;
11191;SDS011;5652;48.406;10.820;2024-03-06T02:01:39;35.38;;;26.75;;
11191;SDS011;5652;48.406;10.820;2024-03-06T02:04:06;37.47;;;27.70;;
11191;SDS011;5652;48.406;10.820;2024-03-06T02:06:34;37.42;;;28.75;;
11191;SDS011;5652;48.406;10.820;2024-03-06T02:09:04;34.65;;;27.50;;
11191;SDS011;5652;48.406;10.820;2024-03-06T02:11:31;37.83;;;28.75;;
11191;SDS011;5652;48.406;10.820;2024-03-06T02:13:59;37.40;;;27.60;;
11191;SDS011;5652;48.406;10.820;2024-03-06T02:16:26;36.95;;;27.85;;
11191;SDS011;5652;48.406;10.820;2024-03-06T02:18:53;37.43;;;28.87;;
11191;SDS011;5652;48.406;10.820;2024-03-06T02:21:22;38.10;;;28.13;;
11191;SDS011;5652;48.406;10.820;2024-03-06T02:23:49;34.95;;;26.75;;
11191;SDS011;5652;48.406;10.820;2024-03-06T02:26:17;35.45;;;26.55;;
11191;SDS011;5652;48.406;10.820;2024-03-06T02:28:47;36.40;;;26.67;;
11191;SDS011;5652;48.406;10.820;2024-03-06T02:31:14;35.30;;;25.25;;
11191;SDS011;5652;48.406;10.820;2024-03-06T02:33:42;36.08;;;26.75;;
11191;SDS011;5652;48.406;10.820;2024-03-06T02:36:09;36.38;;;26.45;;
11191;SDS011;5652;48.406;10.820;2024-03-06T02:38:37;36.28;;;26.33;;
11191;SDS011;5652;48.406;10.820;2024-03-06T02:41:05;34.27;;;25.30;;
11191;SDS011;5652;48.406;10.820;2024-03-06T02:43:32;33.72;;;25.25;;
11191;SDS011;5652;48.406;10.820;2024-03-06T02:45:59;33.83;;;24.33;;
11191;SDS011;5652;48.406;10.820;2024-03-06T02:48:26;34.22;;;25.48;;
11191;SDS011;5652;48.406;10.820;2024-03-06T02:50:54;37.83;;;26.38;;
11191;SDS011;5652;48.406;10.820;2024-03-06T02:53:21;34.35;;;25.50;;
11191;SDS011;5652;48.406;10.820;2024-03-06T02:55:49;32.88;;;24.50;;
11191;SDS011;5652;48.406;10.820;2024-03-06T02:58:16;34.03;;;24.23;;
11191;SDS011;5652;48.406;10.820;2024-03-06T03:00:44;31.85;;;24.13;;
11191;SDS011;5652;48.406;10.820;2024-03-06T03:03:11;31.02;;;23.98;;
11191;SDS011;5652;48.406;10.820;2024-03-06T03:05:38;34.20;;;24.42;;
11191;SDS011;5652;48.406;10.820;2024-03-06T03:08:05;32.45;;;23.60;;
11191;SDS011;5652;48.406;10.820;2024-03-06T03:10:33;33.28;;;24.52;;
11191;SDS011;5652;48.406;10.820;2024-03-06T03:13:02;33.05;;;24.38;;
11191;SDS011;5652;48.406;10.820;2024-03-06T03:15:30;32.42;;;23.75;;
11191;SDS011;5652;48.406;10.820;2024-03-06T03:17:58;32.20;;;23.60;;
11191;SDS011;5652;48.406;10.820;2024-03-06T03:20:25;31.35;;;23.35;;
11191;SDS011;5652;48.406;10.820;2024-03-06T03:22:52;29.80;;;22.65;;
11191;SDS011;5652;48.406;10.820;2024-03-06T03:25:19;33.13;;;23.73;;
11191;SDS011;5652;48.406;10.820;2024-03-06T03:27:47;33.53;;;23.83;;
11191;SDS011;5652;48.406;10.820;2024-03-06T03:30:18;31.73;;;23.80;;
11191;SDS011;5652;48.406;10.820;2024-03-06T03:32:46;30.67;;;23.35;;
11191;SDS011;5652;48.406;10.820;2024-03-06T03:35:14;33.95;;;23.05;;
11191;SDS011;5652;48.406;10.820;2024-03-06T03:37:42;30.92;;;22.55;;
11191;SDS011;5652;48.406;10.820;2024-03-06T03:40:10;30.55;;;21.98;;
11191;SDS011;5652;48.406;10.820;2024-03-06T03:42:37;32.60;;;23.38;;
11191;SDS011;5652;48.406;10.820;2024-03-06T03:45:04;31.75;;;22.73;;
11191;SDS011;5652;48.406;10.820;2024-03-06T03:47:33;32.17;;;23.20;;
11191;SDS011;5652;48.406;10.820;2024-03-06T03:50:00;28.85;;;21.85;;
11191;SDS011;5652;48.406;10.820;2024-03-06T03:52:28;31.23;;;22.38;;
11191;SDS011;5652;48.406;10.820;2024-03-06T03:54:55;30.20;;;22.90;;
11191;SDS011;5652;48.406;10.820;2024-03-06T03:57:22;31.17;;;22.55;;
11191;SDS011;5652;48.406;10.820;2024-03-06T03:59:49;30.83;;;22.50;;
11191;SDS011;5652;48.406;10.820;2024-03-06T04:02:16;32.65;;;23.48;;
11191;SDS011;5652;48.406;10.820;2024-03-06T04:04:45;31.73;;;23.57;;
11191;SDS011;5652;48.406;10.820;2024-03-06T04:07:12;31.75;;;22.88;;
11191;SDS011;5652;48.406;10.820;2024-03-06T04:09:41;32.08;;;23.10;;
11191;SDS011;5652;48.406;10.820;2024-03-06T04:12:08;31.42;;;23.55;;
11191;SDS011;5652;48.406;10.820;2024-03-06T04:14:35;32.03;;;23.95;;
11191;SDS011;5652;48.406;10.820;2024-03-06T04:17:02;30.20;;;23.57;;
11191;SDS011;5652;48.406;10.820;2024-03-06T04:19:30;31.25;;;23.75;;
11191;SDS011;5652;48.406;10.820;2024-03-06T04:21:59;32.55;;;24.35;;
11191;SDS011;5652;48.406;10.820;2024-03-06T04:24:26;31.92;;;23.25;;
11191;SDS011;5652;48.406;10.820;2024-03-06T04:26:54;32.60;;;23.67;;
11191;SDS011;5652;48.406;10.820;2024-03-06T04:29:20;33.90;;;24.60;;
11191;SDS011;5652;48.406;10.820;2024-03-06T04:31:47;33.70;;;23.90;;
11191;SDS011;5652;48.406;10.820;2024-03-06T04:34:14;33.90;;;24.92;;
11191;SDS011;5652;48.406;10.820;2024-03-06T04:36:41;33.17;;;24.50;;
11191;SDS011;5652;48.406;10.820;2024-03-06T04:39:09;35.95;;;25.33;;
11191;SDS011;5652;48.406;10.820;2024-03-06T04:41:37;34.13;;;25.48;;
11191;SDS011;5652;48.406;10.820;2024-03-06T04:44:04;34.15;;;25.10;;
11191;SDS011;5652;48.406;10.820;2024-03-06T04:46:31;35.37;;;25.03;;
11191;SDS011;5652;48.406;10.820;2024-03-06T04:48:59;36.55;;;24.95;;
11191;SDS011;5652;48.406;10.820;2024-03-06T04:51:26;34.53;;;25.58;;
11191;SDS011;5652;48.406;10.820;2024-03-06T04:53:53;36.00;;;26.40;;
11191;SDS011;5652;48.406;10.820;2024-03-06T04:56:21;39.47;;;26.88;;
11191;SDS011;5652;48.406;10.820;2024-03-06T04:58:48;38.15;;;26.58;;
11191;SDS011;5652;48.406;10.820;2024-03-06T05:01:16;37.28;;;27.25;;
11191;SDS011;5652;48.406;10.820;2024-03-06T05:03:43;34.97;;;26.48;;
11191;SDS011;5652;48.406;10.820;2024-03-06T05:06:11;38.95;;;27.80;;
11191;SDS011;5652;48.406;10.820;2024-03-06T05:08:38;38.25;;;26.55;;
11191;SDS011;5652;48.406;10.820;2024-03-06T05:11:05;37.53;;;26.98;;
11191;SDS011;5652;48.406;10.820;2024-03-06T05:13:34;38.38;;;27.48;;
11191;SDS011;5652;48.406;10.820;2024-03-06T05:16:01;40.95;;;28.10;;
11191;SDS011;5652;48.406;10.820;2024-03-06T05:18:28;40.03;;;28.80;;
11191;SDS011;5652;48.406;10.820;2024-03-06T05:20:55;39.50;;;28.38;;
11191;SDS011;5652;48.406;10.820;2024-03-06T05:23:23;41.55;;;28.42;;
11191;SDS011;5652;48.406;10.820;2024-03-06T05:25:50;41.58;;;29.17;;
11191;SDS011;5652;48.406;10.820;2024-03-06T05:28:17;41.93;;;29.00;;
11191;SDS011;5652;48.406;10.820;2024-03-06T05:30:45;40.97;;;29.00;;
11191;SDS011;5652;48.406;10.820;2024-03-06T05:33:12;42.38;;;29.10;;
11191;SDS011;5652;48.406;10.820;2024-03-06T05:35:40;41.10;;;29.45;;
11191;SDS011;5652;48.406;10.820;2024-03-06T05:38:07;41.03;;;28.02;;
11191;SDS011;5652;48.406;10.820;2024-03-06T05:40:34;42.00;;;28.73;;
11191;SDS011;5652;48.406;10.820;2024-03-06T05:43:04;40.80;;;28.25;;
11191;SDS011;5652;48.406;10.820;2024-03-06T05:45:31;43.50;;;29.38;;
11191;SDS011;5652;48.406;10.820;2024-03-06T05:48:00;42.17;;;29.13;;
11191;SDS011;5652;48.406;10.820;2024-03-06T05:50:29;46.80;;;30.45;;
11191;SDS011;5652;48.406;10.820;2024-03-06T05:52:57;44.90;;;29.88;;
11191;SDS011;5652;48.406;10.820;2024-03-06T05:55:25;47.65;;;31.15;;
11191;SDS011;5652;48.406;10.820;2024-03-06T05:57:52;46.13;;;29.75;;
11191;SDS011;5652;48.406;10.820;2024-03-06T06:00:19;45.75;;;30.17;;
11191;SDS011;5652;48.406;10.820;2024-03-06T06:02:47;47.03;;;30.58;;
11191;SDS011;5652;48.406;10.820;2024-03-06T06:05:15;47.33;;;31.17;;
11191;SDS011;5652;48.406;10.820;2024-03-06T06:07:44;47.15;;;30.17;;
11191;SDS011;5652;48.406;10.820;2024-03-06T06:10:12;48.83;;;30.63;;
11191;SDS011;5652;48.406;10.820;2024-03-06T06:12:39;48.90;;;30.17;;
11191;SDS011;5652;48.406;10.820;2024-03-06T06:15:06;50.10;;;31.20;;
11191;SDS011;5652;48.406;10.820;2024-03-06T06:17:33;48.60;;;30.63;;
11191;SDS011;5652;48.406;10.820;2024-03-06T06:20:02;50.10;;;30.53;;
11191;SDS011;5652;48.406;10.820;2024-03-06T06:22:33;51.38;;;30.98;;
11191;SDS011;5652;48.406;10.820;2024-03-06T06:25:00;52.97;;;31.30;;
11191;SDS011;5652;48.406;10.820;2024-03-06T06:27:28;50.87;;;31.37;;
11191;SDS011;5652;48.406;10.820;2024-03-06T06:29:55;53.08;;;31.52;;
11191;SDS011;5652;48.406;10.820;2024-03-06T06:32:23;50.33;;;31.67;;
11191;SDS011;5652;48.406;10.820;2024-03-06T06:34:50;53.78;;;30.50;;
11191;SDS011;5652;48.406;10.820;2024-03-06T06:37:17;54.53;;;31.63;;
11191;SDS011;5652;48.406;10.820;2024-03-06T06:39:46;55.53;;;31.35;;
11191;SDS011;5652;48.406;10.820;2024-03-06T06:42:13;52.22;;;30.83;;
11191;SDS011;5652;48.406;10.820;2024-03-06T06:44:40;55.20;;;30.88;;
11191;SDS011;5652;48.406;10.820;2024-03-06T06:47:07;55.95;;;31.42;;
11191;SDS011;5652;48.406;10.820;2024-03-06T06:49:34;57.47;;;31.63;;
11191;SDS011;5652;48.406;10.820;2024-03-06T06:52:02;55.92;;;31.92;;
11191;SDS011;5652;48.406;10.820;2024-03-06T06:54:29;63.08;;;33.60;;
11191;SDS011;5652;48.406;10.820;2024-03-06T06:56:58;61.58;;;33.53;;
11191;SDS011;5652;48.406;10.820;2024-03-06T06:59:25;62.85;;;33.70;;
11191;SDS011;5652;48.406;10.820;2024-03-06T07:01:53;61.97;;;33.42;;
11191;SDS011;5652;48.406;10.820;2024-03-06T07:04:20;62.90;;;32.38;;
11191;SDS011;5652;48.406;10.820;2024-03-06T07:06:49;65.13;;;33.30;;
11191;SDS011;5652;48.406;10.820;2024-03-06T07:09:16;61.08;;;33.00;;
11191;SDS011;5652;48.406;10.820;2024-03-06T07:11:44;64.63;;;32.67;;
11191;SDS011;5652;48.406;10.820;2024-03-06T07:14:13;61.17;;;31.45;;
11191;SDS011;5652;48.406;10.820;2024-03-06T07:16:41;61.65;;;32.40;;
11191;SDS011;5652;48.406;10.820;2024-03-06T07:19:09;61.28;;;32.40;;
11191;SDS011;5652;48.406;10.820;2024-03-06T07:21:36;62.00;;;32.33;;
11191;SDS011;5652;48.406;10.820;2024-03-06T07:24:03;63.08;;;31.25;;
11191;SDS011;5652;48.406;10.820;2024-03-06T07:26:32;58.83;;;30.10;;
11191;SDS011;5652;48.406;10.820;2024-03-06T07:28:59;62.25;;;31.60;;
11191;SDS011;5652;48.406;10.820;2024-03-06T07:31:27;59.73;;;31.37;;
11191;SDS011;5652;48.406;10.820;2024-03-06T07:33:55;60.43;;;30.70;;
11191;SDS011;5652;48.406;10.820;2024-03-06T07:36:22;57.53;;;29.63;;
11191;SDS011;5652;48.406;10.820;2024-03-06T07:38:49;59.63;;;29.98;;
11191;SDS011;5652;48.406;10.820;2024-03-06T07:41:16;59.88;;;29.85;;
11191;SDS011;5652;48.406;10.820;2024-03-06T07:43:43;59.78;;;30.60;;
11191;SDS011;5652;48.406;10.820;2024-03-06T07:46:10;57.73;;;29.27;;
11191;SDS011;5652;48.406;10.820;2024-03-06T07:48:41;56.97;;;28.70;;
11191;SDS011;5652;48.406;10.820;2024-03-06T07:51:09;57.53;;;29.20;;
11191;SDS011;5652;48.406;10.820;2024-03-06T07:53:36;58.88;;;28.50;;
11191;SDS011;5652;48.406;10.820;2024-03-06T07:56:03;56.67;;;28.45;;
11191;SDS011;5652;48.406;10.820;2024-03-06T07:58:30;61.08;;;29.42;;
11191;SDS011;5652;48.406;10.820;2024-03-06T08:00:58;60.20;;;28.85;;
11191;SDS011;5652;48.406;10.820;2024-03-06T08:03:25;62.10;;;28.17;;
11191;SDS011;5652;48.406;10.820;2024-03-06T08:05:53;58.10;;;27.38;;
11191;SDS011;5652;48.406;10.820;2024-03-06T08:08:21;54.10;;;27.23;;
11191;SDS011;5652;48.406;10.820;2024-03-06T08:10:49;51.97;;;26.10;;
11191;SDS011;5652;48.406;10.820;2024-03-06T08:13:16;53.92;;;26.85;;
11191;SDS011;5652;48.406;10.820;2024-03-06T08:15:44;50.72;;;26.50;;
11191;SDS011;5652;48.406;10.820;2024-03-06T08:18:11;58.15;;;27.25;;
11191;SDS011;5652;48.406;10.820;2024-03-06T08:20:39;60.42;;;28.73;;
11191;SDS011;5652;48.406;10.820;2024-03-06T08:23:08;52.58;;;27.60;;
11191;SDS011;5652;48.406;10.820;2024-03-06T08:25:35;55.13;;;28.00;;
11191;SDS011;5652;48.406;10.820;2024-03-06T08:28:03;58.27;;;28.83;;
11191;SDS011;5652;48.406;10.820;2024-03-06T08:30:30;60.85;;;28.83;;
11191;SDS011;5652;48.406;10.820;2024-03-06T08:32:58;61.72;;;29.35;;
11191;SDS011;5652;48.406;10.820;2024-03-06T08:35:25;61.20;;;29.65;;
11191;SDS011;5652;48.406;10.820;2024-03-06T08:37:52;57.25;;;29.05;;
11191;SDS011;5652;48.406;10.820;2024-03-06T08:40:20;62.60;;;29.15;;
11191;SDS011;5652;48.406;10.820;2024-03-06T08:42:48;56.30;;;27.65;;
11191;SDS011;5652;48.406;10.820;2024-03-06T08:45:15;59.25;;;27.98;;
11191;SDS011;5652;48.406;10.820;2024-03-06T08:47:42;56.88;;;28.27;;
11191;SDS011;5652;48.406;10.820;2024-03-06T08:50:10;56.28;;;28.60;;
11191;SDS011;5652;48.406;10.820;2024-03-06T08:52:37;51.45;;;26.45;;
11191;SDS011;5652;48.406;10.820;2024-03-06T08:55:06;51.20;;;26.60;;
11191;SDS011;5652;48.406;10.820;2024-03-06T08:57:35;54.58;;;27.88;;
11191;SDS011;5652;48.406;10.820;2024-03-06T09:00:02;51.50;;;27.13;;
11191;SDS011;5652;48.406;10.820;2024-03-06T09:02:29;53.93;;;27.37;;
11191;SDS011;5652;48.406;10.820;2024-03-06T09:04:56;56.72;;;28.98;;
11191;SDS011;5652;48.406;10.820;2024-03-06T09:07:23;56.05;;;29.13;;
11191;SDS011;5652;48.406;10.820;2024-03-06T09:09:51;56.72;;;28.70;;
11191;SDS011;5652;48.406;10.820;2024-03-06T09:12:18;61.08;;;30.90;;
11191;SDS011;5652;48.406;10.820;2024-03-06T09:14:46;60.28;;;29.70;;
11191;SDS011;5652;48.406;10.820;2024-03-06T09:17:13;62.17;;;30.10;;
11191;SDS011;5652;48.406;10.820;2024-03-06T09:19:41;58.78;;;30.48;;
11191;SDS011;5652;48.406;10.820;2024-03-06T09:22:08;57.47;;;30.33;;
11191;SDS011;5652;48.406;10.820;2024-03-06T09:24:35;59.90;;;30.75;;
11191;SDS011;5652;48.406;10.820;2024-03-06T09:27:03;66.72;;;30.92;;
11191;SDS011;5652;48.406;10.820;2024-03-06T09:29:30;62.95;;;31.05;;
11191;SDS011;5652;48.406;10.820;2024-03-06T09:31:59;62.72;;;29.85;;
11191;SDS011;5652;48.406;10.820;2024-03-06T09:34:26;56.33;;;28.95;;
11191;SDS011;5652;48.406;10.820;2024-03-06T09:36:53;60.03;;;28.63;;
11191;SDS011;5652;48.406;10.820;2024-03-06T09:39:20;60.45;;;30.20;;
11191;SDS011;5652;48.406;10.820;2024-03-06T09:41:48;58.00;;;29.30;;
11191;SDS011;5652;48.406;10.820;2024-03-06T09:44:15;58.47;;;29.27;;
11191;SDS011;5652;48.406;10.820;2024-03-06T09:46:43;55.97;;;28.23;;
11191;SDS011;5652;48.406;10.820;2024-03-06T09:49:12;49.95;;;27.15;;
11191;SDS011;5652;48.406;10.820;2024-03-06T09:51:40;54.85;;;27.92;;
11191;SDS011;5652;48.406;10.820;2024-03-06T09:54:10;52.72;;;27.60;;
11191;SDS011;5652;48.406;10.820;2024-03-06T09:56:39;48.63;;;27.55;;
11191;SDS011;5652;48.406;10.820;2024-03-06T09:59:07;49.17;;;27.63;;
11191;SDS011;5652;48.406;10.820;2024-03-06T10:01:35;45.95;;;26.92;;
11191;SDS011;5652;48.406;10.820;2024-03-06T10:06:46;46.40;;;26.40;;
11191;SDS011;5652;48.406;10.820;2024-03-06T10:09:16;45.77;;;27.17;;
11191;SDS011;5652;48.406;10.820;2024-03-06T10:11:43;44.20;;;26.13;;
11191;SDS011;5652;48.406;10.820;2024-03-06T10:14:10;43.05;;;25.98;;
11191;SDS011;5652;48.406;10.820;2024-03-06T10:16:51;41.40;;;25.15;;
11191;SDS011;5652;48.406;10.820;2024-03-06T10:19:18;44.53;;;25.70;;
11191;SDS011;5652;48.406;10.820;2024-03-06T10:21:48;41.63;;;25.90;;
11191;SDS011;5652;48.406;10.820;2024-03-06T10:24:17;41.75;;;25.67;;
11191;SDS011;5652;48.406;10.820;2024-03-06T10:26:45;39.13;;;25.02;;
11191;SDS011;5652;48.406;10.820;2024-03-06T10:29:14;38.53;;;23.73;;
11191;SDS011;5652;48.406;10.820;2024-03-06T10:31:46;36.28;;;23.40;;
11191;SDS011;5652;48.406;10.820;2024-03-06T10:34:13;38.45;;;24.35;;
11191;SDS011;5652;48.406;10.820;2024-03-06T10:36:41;39.25;;;24.08;;
11191;SDS011;5652;48.406;10.820;2024-03-06T10:39:12;38.92;;;23.92;;
11191;SDS011;5652;48.406;10.820;2024-03-06T10:41:42;39.83;;;24.92;;
11191;SDS011;5652;48.406;10.820;2024-03-06T10:44:11;43.22;;;25.70;;
11191;SDS011;5652;48.406;10.820;2024-03-06T10:46:40;33.58;;;23.20;;
11191;SDS011;5652;48.406;10.820;2024-03-06T10:49:08;35.55;;;24.13;;
11191;SDS011;5652;48.406;10.820;2024-03-06T10:51:36;38.00;;;24.90;;
11191;SDS011;5652;48.406;10.820;2024-03-06T10:54:05;35.28;;;23.63;;
11191;SDS011;5652;48.406;10.820;2024-03-06T10:56:33;36.60;;;23.52;;
11191;SDS011;5652;48.406;10.820;2024-03-06T10:59:01;36.88;;;24.10;;
11191;SDS011;5652;48.406;10.820;2024-03-06T11:01:28;36.15;;;23.77;;
11191;SDS011;5652;48.406;10.820;2024-03-06T11:03:57;36.30;;;24.07;;
11191;SDS011;5652;48.406;10.820;2024-03-06T11:06:25;37.40;;;25.02;;
11191;SDS011;5652;48.406;10.820;2024-03-06T11:08:52;38.83;;;25.38;;
11191;SDS011;5652;48.406;10.820;2024-03-06T11:11:20;38.20;;;25.55;;
11191;SDS011;5652;48.406;10.820;2024-03-06T11:13:47;39.75;;;26.38;;
11191;SDS011;5652;48.406;10.820;2024-03-06T11:16:15;35.10;;;23.77;;
11191;SDS011;5652;48.406;10.820;2024-03-06T11:18:42;32.88;;;22.73;;
11191;SDS011;5652;48.406;10.820;2024-03-06T11:21:28;30.70;;;22.08;;
11191;SDS011;5652;48.406;10.820;2024-03-06T11:24:14;32.13;;;22.13;;
11191;SDS011;5652;48.406;10.820;2024-03-06T11:26:42;33.97;;;23.15;;
11191;SDS011;5652;48.406;10.820;2024-03-06T11:29:11;30.50;;;22.43;;
11191;SDS011;5652;48.406;10.820;2024-03-06T11:31:38;35.22;;;23.42;;
11191;SDS011;5652;48.406;10.820;2024-03-06T11:34:05;31.48;;;21.90;;
11191;SDS011;5652;48.406;10.820;2024-03-06T11:36:34;33.13;;;22.63;;
11191;SDS011;5652;48.406;10.820;2024-03-06T11:39:02;32.97;;;22.77;;
11191;SDS011;5652;48.406;10.820;2024-03-06T11:41:31;29.15;;;21.52;;
11191;SDS011;5652;48.406;10.820;2024-03-06T11:43:59;31.73;;;22.10;;
11191;SDS011;5652;48.406;10.820;2024-03-06T11:46:41;30.48;;;22.08;;
11191;SDS011;5652;48.406;10.820;2024-03-06T11:49:14;31.37;;;22.43;;
11191;SDS011;5652;48.406;10.820;2024-03-06T11:51:44;31.67;;;23.00;;
11191;SDS011;5652;48.406;10.820;2024-03-06T11:54:12;31.73;;;21.73;;
11191;SDS011;5652;48.406;10.820;2024-03-06T11:56:39;31.17;;;21.90;;
11191;SDS011;5652;48.406;10.820;2024-03-06T11:59:06;31.05;;;21.75;;
11191;SDS011;5652;48.406;10.820;2024-03-06T12:01:34;31.13;;;22.07;;
11191;SDS011;5652;48.406;10.820;2024-03-06T12:04:03;31.38;;;22.00;;
11191;SDS011;5652;48.406;10.820;2024-03-06T12:06:31;30.95;;;21.75;;
11191;SDS011;5652;48.406;10.820;2024-03-06T12:08:59;30.98;;;21.45;;
11191;SDS011;5652;48.406;10.820;2024-03-06T12:11:26;31.08;;;21.88;;
11191;SDS011;5652;48.406;10.820;2024-03-06T12:13:54;30.50;;;21.15;;
11191;SDS011;5652;48.406;10.820;2024-03-06T12:16:22;28.88;;;20.25;;
11191;SDS011;5652;48.406;10.820;2024-03-06T12:18:54;26.80;;;19.90;;
11191;SDS011;5652;48.406;10.820;2024-03-06T12:21:23;31.10;;;21.88;;
11191;SDS011;5652;48.406;10.820;2024-03-06T12:24:01;31.02;;;21.02;;
11191;SDS011;5652;48.406;10.820;2024-03-06T12:26:29;30.00;;;20.98;;
11191;SDS011;5652;48.406;10.820;2024-03-06T12:29:03;31.33;;;21.58;;
11191;SDS011;5652;48.406;10.820;2024-03-06T12:31:31;30.90;;;22.10;;
11191;SDS011;5652;48.406;10.820;2024-03-06T12:33:58;33.38;;;21.85;;
11191;SDS011;5652;48.406;10.820;2024-03-06T12:36:29;32.15;;;22.15;;
11191;SDS011;5652;48.406;10.820;2024-03-06T12:38:58;33.50;;;23.42;;
11191;SDS011;5652;48.406;10.820;2024-03-06T12:41:26;33.20;;;23.73;;
11191;SDS011;5652;48.406;10.820;2024-03-06T12:43:53;32.97;;;23.58;;
11191;SDS011;5652;48.406;10.820;2024-03-06T12:46:21;33.97;;;23.23;;
11191;SDS011;5652;48.406;10.820;2024-03-06T12:48:51;33.38;;;23.05;;
11191;SDS011;5652;48.406;10.820;2024-03-06T12:51:18;32.15;;;23.13;;
11191;SDS011;5652;48.406;10.820;2024-03-06T12:53:46;31.75;;;23.13;;
11191;SDS011;5652;48.406;10.820;2024-03-06T12:56:14;32.85;;;23.40;;
11191;SDS011;5652;48.406;10.820;2024-03-06T12:58:41;32.47;;;22.70;;
11191;SDS011;5652;48.406;10.820;2024-03-06T13:01:08;31.60;;;22.60;;
11191;SDS011;5652;48.406;10.820;2024-03-06T13:03:36;32.15;;;22.63;;
11191;SDS011;5652;48.406;10.820;2024-03-06T13:06:03;32.57;;;23.87;;
11191;SDS011;5652;48.406;10.820;2024-03-06T13:08:31;32.72;;;22.98;;
11191;SDS011;5652;48.406;10.820;2024-03-06T13:10:59;31.77;;;23.10;;
11191;SDS011;5652;48.406;10.820;2024-03-06T13:13:26;30.05;;;21.83;;
11191;SDS011;5652;48.406;10.820;2024-03-06T13:15:55;31.50;;;22.77;;
11191;SDS011;5652;48.406;10.820;2024-03-06T13:18:23;31.88;;;23.05;;
11191;SDS011;5652;48.406;10.820;2024-03-06T13:20:51;33.43;;;24.03;;
11191;SDS011;5652;48.406;10.820;2024-03-06T13:23:19;33.83;;;24.33;;
11191;SDS011;5652;48.406;10.820;2024-03-06T13:25:47;34.27;;;25.03;;
11191;SDS011;5652;48.406;10.820;2024-03-06T13:28:15;33.55;;;24.88;;
11191;SDS011;5652;48.406;10.820;2024-03-06T13:30:42;37.47;;;26.60;;
11191;SDS011;5652;48.406;10.820;2024-03-06T13:33:10;36.67;;;26.15;;
11191;SDS011;5652;48.406;10.820;2024-03-06T13:35:37;35.95;;;25.88;;
11191;SDS011;5652;48.406;10.820;2024-03-06T13:38:04;38.35;;;26.75;;
11191;SDS011;5652;48.406;10.820;2024-03-06T13:40:31;36.72;;;25.75;;
11191;SDS011;5652;48.406;10.820;2024-03-06T13:42:58;37.35;;;27.15;;
11191;SDS011;5652;48.406;10.820;2024-03-06T13:45:27;37.55;;;26.38;;
11191;SDS011;5652;48.406;10.820;2024-03-06T13:47:54;37.50;;;26.02;;
11191;SDS011;5652;48.406;10.820;2024-03-06T13:50:21;39.13;;;26.02;;
11191;SDS011;5652;48.406;10.820;2024-03-06T13:52:50;37.92;;;25.23;;
11191;SDS011;5652;48.406;10.820;2024-03-06T13:55:17;35.17;;;23.45;;
11191;SDS011;5652;48.406;10.820;2024-03-06T13:57:45;34.67;;;24.42;;
11191;SDS011;5652;48.406;10.820;2024-03-06T14:00:12;35.47;;;24.20;;
11191;SDS011;5652;48.406;10.820;2024-03-06T14:02:43;37.28;;;24.63;;
11191;SDS011;5652;48.406;10.820;2024-03-06T14:05:12;37.88;;;24.58;;
11191;SDS011;5652;48.406;10.820;2024-03-06T14:07:39;37.77;;;24.53;;
11191;SDS011;5652;48.406;10.820;2024-03-06T14:10:07;36.40;;;24.55;;
11191;SDS011;5652;48.406;10.820;2024-03-06T14:12:34;39.90;;;24.52;;
11191;SDS011;5652;48.406;10.820;2024-03-06T14:15:02;39.05;;;25.25;;
11191;SDS011;5652;48.406;10.820;2024-03-06T14:17:30;38.63;;;25.80;;
11191;SDS011;5652;48.406;10.820;2024-03-06T14:19:58;37.50;;;25.13;;
11191;SDS011;5652;48.406;10.820;2024-03-06T14:22:25;42.58;;;26.77;;
11191;SDS011;5652;48.406;10.820;2024-03-06T14:24:52;40.55;;;26.42;;
11191;SDS011;5652;48.406;10.820;2024-03-06T14:27:20;41.67;;;26.73;;